sensor_id;sensor_type;location;lat;lon;timestamp;pressure;altitude;pressure_sealevel;temperature;humidity
59073;BME280;44859;51.934;15.554;2023-04-28T00:00:38;100193.16;;;2.11;73.03
59073;BME280;44859;51.934;15.554;2023-04-28T00:03:26;100190.00;;;2.16;73.33
59073;BME280;44859;51.934;15.554;2023-04-28T00:06:10;100190.14;;;2.19;73.30
59073;BME280;44859;51.934;15.554;2023-04-28T00:08:42;100189.44;;;2.21;73.48
59073;BME280;44859;51.934;15.554;2023-04-28T00:11:25;100188.23;;;2.22;73.28
59073;BME280;44859;51.934;15.554;2023-04-28T00:13:56;100188.71;;;2.26;73.61
59073;BME280;44859;51.934;15.554;2023-04-28T00:16:30;100188.70;;;2.27;73.64
59073;BME280;44859;51.934;15.554;2023-04-28T00:19:08;100189.73;;;2.27;73.97
59073;BME280;44859;51.934;15.554;2023-04-28T00:22:12;100186.73;;;2.35;73.67
59073;BME280;44859;51.934;15.554;2023-04-28T00:24:49;100186.69;;;2.39;73.60
59073;BME280;44859;51.934;15.554;2023-04-28T00:27:26;100183.40;;;2.38;73.69
59073;BME280;44859;51.934;15.554;2023-04-28T00:30:00;100183.08;;;2.36;73.60
59073;BME280;44859;51.934;15.554;2023-04-28T00:32:35;100174.45;;;2.31;73.59
59073;BME280;44859;51.934;15.554;2023-04-28T00:35:10;100173.10;;;2.26;73.54
59073;BME280;44859;51.934;15.554;2023-04-28T00:37:45;100173.15;;;2.21;73.66
59073;BME280;44859;51.934;15.554;2023-04-28T00:40:35;100170.76;;;2.17;74.05
59073;BME280;44859;51.934;15.554;2023-04-28T00:43:21;100174.80;;;2.11;74.09
59073;BME280;44859;51.934;15.554;2023-04-28T00:46:05;100173.98;;;2.05;74.28
59073;BME280;44859;51.934;15.554;2023-04-28T00:48:37;100174.89;;;2.00;74.24
59073;BME280;44859;51.934;15.554;2023-04-28T00:51:12;100178.71;;;1.98;74.38
59073;BME280;44859;51.934;15.554;2023-04-28T00:53:55;100173.37;;;1.95;74.49
59073;BME280;44859;51.934;15.554;2023-04-28T00:56:30;100173.23;;;1.89;74.37
59073;BME280;44859;51.934;15.554;2023-04-28T00:59:00;100172.02;;;1.87;74.49
59073;BME280;44859;51.934;15.554;2023-04-28T01:01:51;100167.00;;;1.87;74.87
59073;BME280;44859;51.934;15.554;2023-04-28T01:04:44;100167.70;;;1.88;74.73
59073;BME280;44859;51.934;15.554;2023-04-28T01:07:27;100165.59;;;1.92;74.97
59073;BME280;44859;51.934;15.554;2023-04-28T01:10:18;100162.46;;;1.94;75.14
59073;BME280;44859;51.934;15.554;2023-04-28T01:13:16;100161.05;;;1.97;74.86
59073;BME280;44859;51.934;15.554;2023-04-28T01:16:17;100156.54;;;1.97;74.69
59073;BME280;44859;51.934;15.554;2023-04-28T01:19:01;100156.72;;;1.96;74.84
59073;BME280;44859;51.934;15.554;2023-04-28T01:21:42;100156.23;;;1.94;74.95
59073;BME280;44859;51.934;15.554;2023-04-28T01:24:36;100152.40;;;1.94;74.88
59073;BME280;44859;51.934;15.554;2023-04-28T01:27:33;100156.72;;;1.97;74.90
59073;BME280;44859;51.934;15.554;2023-04-28T01:30:07;100159.48;;;1.99;75.04
59073;BME280;44859;51.934;15.554;2023-04-28T01:33:01;100153.53;;;2.05;74.88
59073;BME280;44859;51.934;15.554;2023-04-28T01:36:05;100149.70;;;2.07;75.03
59073;BME280;44859;51.934;15.554;2023-04-28T01:38:45;100147.66;;;2.03;75.18
59073;BME280;44859;51.934;15.554;2023-04-28T01:41:35;100145.77;;;2.00;74.93
59073;BME280;44859;51.934;15.554;2023-04-28T01:44:52;100142.15;;;1.98;75.20
59073;BME280;44859;51.934;15.554;2023-04-28T01:47:43;100136.77;;;2.01;75.07
59073;BME280;44859;51.934;15.554;2023-04-28T01:50:21;100134.69;;;2.01;75.22
59073;BME280;44859;51.934;15.554;2023-04-28T01:53:13;100135.71;;;2.02;75.29
59073;BME280;44859;51.934;15.554;2023-04-28T01:56:04;100133.27;;;2.04;75.42
59073;BME280;44859;51.934;15.554;2023-04-28T01:59:11;100136.38;;;2.05;75.20
59073;BME280;44859;51.934;15.554;2023-04-28T02:01:53;100137.42;;;2.05;75.00
59073;BME280;44859;51.934;15.554;2023-04-28T02:04:40;100134.10;;;2.08;75.08
59073;BME280;44859;51.934;15.554;2023-04-28T02:07:58;100131.80;;;2.13;75.29
59073;BME280;44859;51.934;15.554;2023-04-28T02:10:50;100133.52;;;2.13;75.16
59073;BME280;44859;51.934;15.554;2023-04-28T02:13:38;100130.05;;;2.14;75.24
59073;BME280;44859;51.934;15.554;2023-04-28T02:16:31;100128.30;;;2.18;75.43
59073;BME280;44859;51.934;15.554;2023-04-28T02:19:23;100127.42;;;2.19;75.36
59073;BME280;44859;51.934;15.554;2023-04-28T02:22:19;100125.54;;;2.17;75.35
59073;BME280;44859;51.934;15.554;2023-04-28T02:25:07;100119.48;;;2.14;75.55
59073;BME280;44859;51.934;15.554;2023-04-28T02:27:43;100118.80;;;2.15;75.51
59073;BME280;44859;51.934;15.554;2023-04-28T02:30:28;100121.23;;;2.13;75.53
59073;BME280;44859;51.934;15.554;2023-04-28T02:36:13;100124.70;;;2.12;75.35
59073;BME280;44859;51.934;15.554;2023-04-28T02:38:57;100126.12;;;2.10;75.51
59073;BME280;44859;51.934;15.554;2023-04-28T02:41:59;100124.91;;;2.09;75.38
59073;BME280;44859;51.934;15.554;2023-04-28T02:44:44;100127.17;;;2.09;75.55
59073;BME280;44859;51.934;15.554;2023-04-28T02:47:27;100124.22;;;2.10;75.53
59073;BME280;44859;51.934;15.554;2023-04-28T02:50:38;100123.89;;;2.07;75.28
59073;BME280;44859;51.934;15.554;2023-04-28T02:53:35;100120.11;;;2.04;75.62
59073;BME280;44859;51.934;15.554;2023-04-28T02:56:19;100118.37;;;2.05;75.51
59073;BME280;44859;51.934;15.554;2023-04-28T02:59:25;100117.98;;;2.09;75.18
59073;BME280;44859;51.934;15.554;2023-04-28T03:01:58;100118.28;;;2.13;75.45
59073;BME280;44859;51.934;15.554;2023-04-28T03:04:37;100119.46;;;2.17;75.19
59073;BME280;44859;51.934;15.554;2023-04-28T03:07:53;100115.96;;;2.21;75.10
59073;BME280;44859;51.934;15.554;2023-04-28T03:10:53;100116.29;;;2.24;75.21
59073;BME280;44859;51.934;15.554;2023-04-28T03:13:51;100115.23;;;2.26;75.22
59073;BME280;44859;51.934;15.554;2023-04-28T03:16:52;100109.81;;;2.31;75.21
59073;BME280;44859;51.934;15.554;2023-04-28T03:19:50;100107.54;;;2.32;75.39
59073;BME280;44859;51.934;15.554;2023-04-28T03:22:25;100105.11;;;2.32;75.37
59073;BME280;44859;51.934;15.554;2023-04-28T03:25:22;100105.08;;;2.35;75.28
59073;BME280;44859;51.934;15.554;2023-04-28T03:28:06;100104.37;;;2.38;75.19
59073;BME280;44859;51.934;15.554;2023-04-28T03:31:11;100096.98;;;2.48;74.90
59073;BME280;44859;51.934;15.554;2023-04-28T03:34:08;100093.88;;;2.63;74.71
59073;BME280;44859;51.934;15.554;2023-04-28T03:37:06;100089.30;;;2.82;74.39
59073;BME280;44859;51.934;15.554;2023-04-28T03:39:47;100084.27;;;2.97;73.72
59073;BME280;44859;51.934;15.554;2023-04-28T03:42:20;100080.36;;;3.15;73.14
59073;BME280;44859;51.934;15.554;2023-04-28T03:48:20;100079.50;;;3.52;71.95
59073;BME280;44859;51.934;15.554;2023-04-28T03:50:52;100080.17;;;3.65;71.57
59073;BME280;44859;51.934;15.554;2023-04-28T03:53:36;100077.38;;;3.76;71.08
59073;BME280;44859;51.934;15.554;2023-04-28T03:56:12;100073.24;;;3.85;70.66
59073;BME280;44859;51.934;15.554;2023-04-28T03:59:01;100068.58;;;3.93;70.39
59073;BME280;44859;51.934;15.554;2023-04-28T04:01:48;100068.44;;;4.02;69.95
59073;BME280;44859;51.934;15.554;2023-04-28T04:04:28;100071.57;;;4.12;69.88
59073;BME280;44859;51.934;15.554;2023-04-28T04:07:24;100071.75;;;4.21;69.50
59073;BME280;44859;51.934;15.554;2023-04-28T04:10:09;100069.77;;;4.33;68.98
59073;BME280;44859;51.934;15.554;2023-04-28T04:12:54;100070.27;;;4.44;68.79
59073;BME280;44859;51.934;15.554;2023-04-28T04:15:43;100070.96;;;4.54;68.40
59073;BME280;44859;51.934;15.554;2023-04-28T04:18:25;100067.48;;;4.63;68.18
59073;BME280;44859;51.934;15.554;2023-04-28T04:21:41;100069.76;;;4.71;67.85
59073;BME280;44859;51.934;15.554;2023-04-28T04:24:38;100070.64;;;4.78;67.72
59073;BME280;44859;51.934;15.554;2023-04-28T04:27:15;100067.38;;;4.85;67.49
59073;BME280;44859;51.934;15.554;2023-04-28T04:29:47;100066.38;;;4.91;67.21
59073;BME280;44859;51.934;15.554;2023-04-28T04:32:24;100066.58;;;4.98;67.29
59073;BME280;44859;51.934;15.554;2023-04-28T04:35:04;100068.14;;;5.07;67.06
59073;BME280;44859;51.934;15.554;2023-04-28T04:37:38;100073.77;;;5.12;66.91
59073;BME280;44859;51.934;15.554;2023-04-28T04:40:25;100073.98;;;5.18;66.72
59073;BME280;44859;51.934;15.554;2023-04-28T04:43:13;100073.38;;;5.22;66.27
59073;BME280;44859;51.934;15.554;2023-04-28T04:45:59;100068.44;;;5.25;66.12
59073;BME280;44859;51.934;15.554;2023-04-28T04:48:44;100064.95;;;5.26;66.37
59073;BME280;44859;51.934;15.554;2023-04-28T04:51:15;100064.06;;;5.26;66.30
59073;BME280;44859;51.934;15.554;2023-04-28T04:53:58;100060.79;;;5.25;65.97
59073;BME280;44859;51.934;15.554;2023-04-28T04:56:36;100059.30;;;5.21;65.95
59073;BME280;44859;51.934;15.554;2023-04-28T04:59:21;100056.92;;;5.18;65.74
59073;BME280;44859;51.934;15.554;2023-04-28T05:02:01;100057.05;;;5.20;65.97
59073;BME280;44859;51.934;15.554;2023-04-28T05:04:33;100056.74;;;5.26;65.91
59073;BME280;44859;51.934;15.554;2023-04-28T05:07:10;100055.71;;;5.33;65.73
59073;BME280;44859;51.934;15.554;2023-04-28T05:10:00;100052.11;;;5.38;65.80
59073;BME280;44859;51.934;15.554;2023-04-28T05:12:40;100048.18;;;5.43;65.62
59073;BME280;44859;51.934;15.554;2023-04-28T05:15:37;100049.78;;;5.48;65.56
59073;BME280;44859;51.934;15.554;2023-04-28T05:18:09;100049.32;;;5.53;65.10
59073;BME280;44859;51.934;15.554;2023-04-28T05:20:45;100048.20;;;5.56;65.10
59073;BME280;44859;51.934;15.554;2023-04-28T05:23:21;100046.23;;;5.59;65.07
59073;BME280;44859;51.934;15.554;2023-04-28T05:25:56;100043.72;;;5.62;64.76
59073;BME280;44859;51.934;15.554;2023-04-28T05:28:51;100039.91;;;5.61;64.97
59073;BME280;44859;51.934;15.554;2023-04-28T05:31:35;100037.35;;;5.65;64.70
59073;BME280;44859;51.934;15.554;2023-04-28T05:34:10;100034.67;;;5.68;64.69
59073;BME280;44859;51.934;15.554;2023-04-28T05:36:46;100034.45;;;5.77;64.32
59073;BME280;44859;51.934;15.554;2023-04-28T05:39:33;100034.27;;;5.99;64.21
59073;BME280;44859;51.934;15.554;2023-04-28T05:42:21;100033.27;;;6.04;63.86
59073;BME280;44859;51.934;15.554;2023-04-28T05:45:10;100032.58;;;6.17;63.89
59073;BME280;44859;51.934;15.554;2023-04-28T05:47:42;100028.91;;;6.49;63.61
59073;BME280;44859;51.934;15.554;2023-04-28T05:50:20;100026.38;;;6.59;63.00
59073;BME280;44859;51.934;15.554;2023-04-28T05:52:52;100021.27;;;6.72;63.19
59073;BME280;44859;51.934;15.554;2023-04-28T05:55:29;100016.07;;;7.06;62.85
59073;BME280;44859;51.934;15.554;2023-04-28T05:58:04;100009.33;;;7.43;62.55
59073;BME280;44859;51.934;15.554;2023-04-28T06:00:40;100012.82;;;7.75;61.92
59073;BME280;44859;51.934;15.554;2023-04-28T06:03:38;100008.72;;;7.98;61.05
59073;BME280;44859;51.934;15.554;2023-04-28T06:06:10;100007.20;;;8.16;60.84
59073;BME280;44859;51.934;15.554;2023-04-28T06:08:39;100005.56;;;8.33;60.31
59073;BME280;44859;51.934;15.554;2023-04-28T06:11:08;100002.07;;;8.49;59.88
59073;BME280;44859;51.934;15.554;2023-04-28T06:13:36;99998.23;;;8.53;59.18
59073;BME280;44859;51.934;15.554;2023-04-28T06:16:05;99997.41;;;8.70;58.97
59073;BME280;44859;51.934;15.554;2023-04-28T06:18:35;99998.27;;;8.93;58.28
59073;BME280;44859;51.934;15.554;2023-04-28T06:21:04;100001.52;;;9.18;57.74
59073;BME280;44859;51.934;15.554;2023-04-28T06:23:33;99999.25;;;9.31;57.31
59073;BME280;44859;51.934;15.554;2023-04-28T06:26:02;99999.92;;;9.37;56.45
59073;BME280;44859;51.934;15.554;2023-04-28T06:28:30;99995.55;;;9.45;56.56
59073;BME280;44859;51.934;15.554;2023-04-28T06:30:59;99996.89;;;9.59;56.14
59073;BME280;44859;51.934;15.554;2023-04-28T06:33:28;99993.91;;;9.77;56.06
59073;BME280;44859;51.934;15.554;2023-04-28T06:35:56;99991.44;;;10.01;55.66
59073;BME280;44859;51.934;15.554;2023-04-28T06:38:25;99988.02;;;10.15;55.27
59073;BME280;44859;51.934;15.554;2023-04-28T06:40:54;99988.64;;;10.21;54.70
59073;BME280;44859;51.934;15.554;2023-04-28T06:43:26;99989.57;;;10.28;53.91
59073;BME280;44859;51.934;15.554;2023-04-28T06:45:55;99985.13;;;10.13;53.74
59073;BME280;44859;51.934;15.554;2023-04-28T06:48:23;99988.05;;;10.15;53.93
59073;BME280;44859;51.934;15.554;2023-04-28T06:50:56;99982.27;;;10.18;53.25
59073;BME280;44859;51.934;15.554;2023-04-28T06:53:25;99981.33;;;10.28;53.20
59073;BME280;44859;51.934;15.554;2023-04-28T06:55:53;99976.72;;;10.25;53.72
59073;BME280;44859;51.934;15.554;2023-04-28T06:58:25;99973.15;;;10.14;52.79
59073;BME280;44859;51.934;15.554;2023-04-28T07:00:53;99976.32;;;10.10;53.33
59073;BME280;44859;51.934;15.554;2023-04-28T07:03:22;99972.20;;;10.32;53.41
59073;BME280;44859;51.934;15.554;2023-04-28T07:05:50;99968.59;;;10.43;52.35
59073;BME280;44859;51.934;15.554;2023-04-28T07:08:22;99966.11;;;10.55;52.78
59073;BME280;44859;51.934;15.554;2023-04-28T07:10:51;99959.61;;;10.54;52.24
59073;BME280;44859;51.934;15.554;2023-04-28T07:13:24;99957.82;;;10.56;52.29
59073;BME280;44859;51.934;15.554;2023-04-28T07:15:53;99956.16;;;10.79;51.73
59073;BME280;44859;51.934;15.554;2023-04-28T07:18:22;99950.55;;;10.87;51.27
59073;BME280;44859;51.934;15.554;2023-04-28T07:20:50;99949.61;;;11.07;51.60
59073;BME280;44859;51.934;15.554;2023-04-28T07:23:19;99945.44;;;11.35;50.56
59073;BME280;44859;51.934;15.554;2023-04-28T07:25:50;99938.82;;;11.34;49.72
59073;BME280;44859;51.934;15.554;2023-04-28T07:28:21;99933.02;;;11.44;49.67
59073;BME280;44859;51.934;15.554;2023-04-28T07:30:50;99932.42;;;11.35;49.22
59073;BME280;44859;51.934;15.554;2023-04-28T07:33:19;99924.80;;;11.04;49.69
59073;BME280;44859;51.934;15.554;2023-04-28T07:35:48;99930.23;;;10.86;50.10
59073;BME280;44859;51.934;15.554;2023-04-28T07:38:17;99928.14;;;10.71;49.85
59073;BME280;44859;51.934;15.554;2023-04-28T07:40:47;99923.96;;;10.58;50.63
59073;BME280;44859;51.934;15.554;2023-04-28T07:43:16;99914.79;;;10.74;50.62
59073;BME280;44859;51.934;15.554;2023-04-28T07:45:45;99917.75;;;10.94;49.86
59073;BME280;44859;51.934;15.554;2023-04-28T07:48:16;99914.67;;;10.99;50.17
59073;BME280;44859;51.934;15.554;2023-04-28T07:50:44;99907.99;;;11.38;50.43
59073;BME280;44859;51.934;15.554;2023-04-28T07:53:14;99912.59;;;11.83;48.75
59073;BME280;44859;51.934;15.554;2023-04-28T07:55:42;99907.17;;;12.09;47.95
59073;BME280;44859;51.934;15.554;2023-04-28T07:58:13;99910.86;;;12.00;47.80
59073;BME280;44859;51.934;15.554;2023-04-28T08:00:41;99908.33;;;11.94;48.13
59073;BME280;44859;51.934;15.554;2023-04-28T08:03:10;99905.31;;;11.95;48.12
59073;BME280;44859;51.934;15.554;2023-04-28T08:05:42;99908.09;;;11.99;47.48
59073;BME280;44859;51.934;15.554;2023-04-28T08:08:12;99904.00;;;12.06;46.64
59073;BME280;44859;51.934;15.554;2023-04-28T08:10:44;99905.05;;;12.10;46.71
59073;BME280;44859;51.934;15.554;2023-04-28T08:13:13;99901.93;;;12.22;46.43
59073;BME280;44859;51.934;15.554;2023-04-28T08:15:43;99899.16;;;12.34;46.22
59073;BME280;44859;51.934;15.554;2023-04-28T08:18:12;99903.01;;;12.32;45.93
59073;BME280;44859;51.934;15.554;2023-04-28T08:20:40;99893.53;;;12.41;45.67
59073;BME280;44859;51.934;15.554;2023-04-28T08:23:09;99891.45;;;12.63;45.56
59073;BME280;44859;51.934;15.554;2023-04-28T08:25:37;99888.17;;;12.89;45.10
59073;BME280;44859;51.934;15.554;2023-04-28T08:28:06;99887.86;;;13.05;44.25
59073;BME280;44859;51.934;15.554;2023-04-28T08:30:36;99879.89;;;13.14;44.45
59073;BME280;44859;51.934;15.554;2023-04-28T08:33:06;99875.42;;;13.49;44.35
59073;BME280;44859;51.934;15.554;2023-04-28T08:35:37;99872.55;;;13.59;43.46
59073;BME280;44859;51.934;15.554;2023-04-28T08:38:06;99872.76;;;13.34;43.96
59073;BME280;44859;51.934;15.554;2023-04-28T08:40:36;99869.52;;;13.44;43.40
59073;BME280;44859;51.934;15.554;2023-04-28T08:43:04;99867.71;;;13.63;43.25
59073;BME280;44859;51.934;15.554;2023-04-28T08:45:41;99859.17;;;13.90;43.49
59073;BME280;44859;51.934;15.554;2023-04-28T08:48:21;99859.13;;;14.34;43.43
59073;BME280;44859;51.934;15.554;2023-04-28T08:50:51;99856.02;;;14.91;43.12
59073;BME280;44859;51.934;15.554;2023-04-28T08:53:23;99857.04;;;14.86;40.83
59073;BME280;44859;51.934;15.554;2023-04-28T08:55:56;99856.91;;;14.80;39.98
59073;BME280;44859;51.934;15.554;2023-04-28T08:58:26;99850.17;;;14.61;39.91
59073;BME280;44859;51.934;15.554;2023-04-28T09:00:55;99847.80;;;14.43;40.37
59073;BME280;44859;51.934;15.554;2023-04-28T09:03:34;99852.34;;;14.49;40.53
59073;BME280;44859;51.934;15.554;2023-04-28T09:06:02;99845.06;;;14.69;38.99
59073;BME280;44859;51.934;15.554;2023-04-28T09:08:31;99842.45;;;14.49;38.72
59073;BME280;44859;51.934;15.554;2023-04-28T09:11:07;99838.70;;;14.13;39.66
59073;BME280;44859;51.934;15.554;2023-04-28T09:13:37;99838.59;;;14.12;40.22
59073;BME280;44859;51.934;15.554;2023-04-28T09:16:06;99834.68;;;14.35;39.81
59073;BME280;44859;51.934;15.554;2023-04-28T09:18:35;99834.88;;;14.65;39.33
59073;BME280;44859;51.934;15.554;2023-04-28T09:21:08;99829.66;;;14.75;39.40
59073;BME280;44859;51.934;15.554;2023-04-28T09:23:47;99825.98;;;14.98;39.74
59073;BME280;44859;51.934;15.554;2023-04-28T09:26:19;99824.34;;;15.07;38.36
59073;BME280;44859;51.934;15.554;2023-04-28T09:28:47;99824.73;;;14.72;38.79
59073;BME280;44859;51.934;15.554;2023-04-28T09:31:24;99819.66;;;14.71;39.07
59073;BME280;44859;51.934;15.554;2023-04-28T09:33:58;99823.75;;;14.79;39.59
59073;BME280;44859;51.934;15.554;2023-04-28T09:36:29;99816.77;;;15.25;38.76
59073;BME280;44859;51.934;15.554;2023-04-28T09:38:58;99812.86;;;15.51;37.92
59073;BME280;44859;51.934;15.554;2023-04-28T09:41:43;99807.92;;;15.80;37.81
59073;BME280;44859;51.934;15.554;2023-04-28T09:44:16;99806.70;;;15.67;38.50
59073;BME280;44859;51.934;15.554;2023-04-28T09:46:47;99795.55;;;15.62;38.14
59073;BME280;44859;51.934;15.554;2023-04-28T09:49:15;99794.09;;;15.54;38.12
59073;BME280;44859;51.934;15.554;2023-04-28T09:51:47;99789.36;;;15.41;37.82
59073;BME280;44859;51.934;15.554;2023-04-28T09:54:20;99789.70;;;15.41;37.33
59073;BME280;44859;51.934;15.554;2023-04-28T09:56:50;99786.89;;;15.43;37.23
59073;BME280;44859;51.934;15.554;2023-04-28T09:59:19;99788.77;;;15.39;37.15
59073;BME280;44859;51.934;15.554;2023-04-28T10:01:48;99790.58;;;15.31;36.98
59073;BME280;44859;51.934;15.554;2023-04-28T10:04:17;99779.77;;;15.49;38.10
59073;BME280;44859;51.934;15.554;2023-04-28T10:06:49;99780.73;;;15.84;37.58
59073;BME280;44859;51.934;15.554;2023-04-28T10:09:27;99778.35;;;15.95;37.24
59073;BME280;44859;51.934;15.554;2023-04-28T10:11:55;99773.15;;;15.91;37.50
59073;BME280;44859;51.934;15.554;2023-04-28T10:14:30;99766.62;;;15.96;37.79
59073;BME280;44859;51.934;15.554;2023-04-28T10:16:59;99775.48;;;16.20;37.71
59073;BME280;44859;51.934;15.554;2023-04-28T10:19:33;99765.76;;;16.30;36.99
59073;BME280;44859;51.934;15.554;2023-04-28T10:27:43;99756.71;;;16.05;38.20
59073;BME280;44859;51.934;15.554;2023-04-28T10:30:14;99751.60;;;16.27;38.15
59073;BME280;44859;51.934;15.554;2023-04-28T10:32:47;99744.90;;;16.48;37.76
59073;BME280;44859;51.934;15.554;2023-04-28T10:35:45;99743.45;;;16.66;37.72
59073;BME280;44859;51.934;15.554;2023-04-28T10:38:18;99734.50;;;16.69;37.65
59073;BME280;44859;51.934;15.554;2023-04-28T10:40:50;99734.03;;;16.47;38.47
59073;BME280;44859;51.934;15.554;2023-04-28T10:46:02;99733.05;;;16.09;38.21
59073;BME280;44859;51.934;15.554;2023-04-28T10:56:16;99716.99;;;16.62;37.66
59073;BME280;44859;51.934;15.554;2023-04-28T10:58:54;99712.44;;;16.35;37.89
59073;BME280;44859;51.934;15.554;2023-04-28T11:01:24;99715.61;;;16.06;38.57
59073;BME280;44859;51.934;15.554;2023-04-28T11:04:04;99713.61;;;16.11;38.90
59073;BME280;44859;51.934;15.554;2023-04-28T11:06:46;99707.14;;;16.13;38.97
59073;BME280;44859;51.934;15.554;2023-04-28T11:12:04;99700.29;;;16.02;39.16
59073;BME280;44859;51.934;15.554;2023-04-28T11:14:35;99701.45;;;16.15;38.81
59073;BME280;44859;51.934;15.554;2023-04-28T11:17:10;99698.52;;;16.40;38.56
59073;BME280;44859;51.934;15.554;2023-04-28T11:19:46;99695.70;;;16.59;38.14
59073;BME280;44859;51.934;15.554;2023-04-28T11:22:20;99695.44;;;16.72;37.58
59073;BME280;44859;51.934;15.554;2023-04-28T11:24:55;99695.87;;;16.64;38.25
59073;BME280;44859;51.934;15.554;2023-04-28T11:27:28;99692.41;;;16.70;37.88
59073;BME280;44859;51.934;15.554;2023-04-28T11:30:00;99686.90;;;16.66;37.76
59073;BME280;44859;51.934;15.554;2023-04-28T11:32:34;99691.84;;;16.23;37.43
59073;BME280;44859;51.934;15.554;2023-04-28T11:35:03;99688.73;;;16.10;38.03
59073;BME280;44859;51.934;15.554;2023-04-28T11:37:36;99688.46;;;16.04;38.38
59073;BME280;44859;51.934;15.554;2023-04-28T11:40:10;99692.30;;;16.02;39.01
59073;BME280;44859;51.934;15.554;2023-04-28T11:42:48;99689.64;;;16.09;38.98
59073;BME280;44859;51.934;15.554;2023-04-28T11:45:16;99689.10;;;16.17;38.93
59073;BME280;44859;51.934;15.554;2023-04-28T11:47:45;99682.66;;;16.20;38.58
59073;BME280;44859;51.934;15.554;2023-04-28T11:50:16;99676.64;;;16.08;38.17
59073;BME280;44859;51.934;15.554;2023-04-28T11:52:48;99678.66;;;15.90;38.30
59073;BME280;44859;51.934;15.554;2023-04-28T11:55:20;99669.38;;;15.81;38.61
59073;BME280;44859;51.934;15.554;2023-04-28T11:58:21;99676.82;;;15.86;39.46
59073;BME280;44859;51.934;15.554;2023-04-28T12:03:46;99669.86;;;16.26;39.01
59073;BME280;44859;51.934;15.554;2023-04-28T12:06:16;99666.03;;;16.41;38.85
59073;BME280;44859;51.934;15.554;2023-04-28T12:08:48;99661.55;;;16.51;38.49
59073;BME280;44859;51.934;15.554;2023-04-28T12:11:18;99660.98;;;16.47;38.80
59073;BME280;44859;51.934;15.554;2023-04-28T12:14:03;99660.28;;;16.78;39.43
59073;BME280;44859;51.934;15.554;2023-04-28T12:16:37;99657.42;;;17.15;38.52
59073;BME280;44859;51.934;15.554;2023-04-28T12:19:12;99653.06;;;17.21;38.15
59073;BME280;44859;51.934;15.554;2023-04-28T12:21:58;99645.64;;;17.14;37.41
59073;BME280;44859;51.934;15.554;2023-04-28T12:24:31;99642.96;;;16.96;37.76
59073;BME280;44859;51.934;15.554;2023-04-28T12:27:14;99645.27;;;17.14;37.63
59073;BME280;44859;51.934;15.554;2023-04-28T12:29:43;99639.42;;;16.93;38.13
59073;BME280;44859;51.934;15.554;2023-04-28T12:32:14;99640.49;;;16.81;38.31
59073;BME280;44859;51.934;15.554;2023-04-28T12:34:45;99637.90;;;16.83;38.59
59073;BME280;44859;51.934;15.554;2023-04-28T12:37:16;99635.17;;;17.02;37.95
59073;BME280;44859;51.934;15.554;2023-04-28T12:39:45;99627.95;;;17.22;37.24
59073;BME280;44859;51.934;15.554;2023-04-28T12:42:14;99625.27;;;17.13;37.25
59073;BME280;44859;51.934;15.554;2023-04-28T12:44:48;99626.42;;;16.92;37.69
59073;BME280;44859;51.934;15.554;2023-04-28T12:47:17;99618.36;;;16.95;38.41
59073;BME280;44859;51.934;15.554;2023-04-28T12:49:46;99612.96;;;16.96;38.40
59073;BME280;44859;51.934;15.554;2023-04-28T12:52:18;99610.02;;;17.11;39.10
59073;BME280;44859;51.934;15.554;2023-04-28T12:54:47;99608.22;;;17.36;38.88
59073;BME280;44859;51.934;15.554;2023-04-28T12:57:17;99603.25;;;17.43;38.00
59073;BME280;44859;51.934;15.554;2023-04-28T12:59:48;99600.09;;;17.34;38.13
59073;BME280;44859;51.934;15.554;2023-04-28T13:02:16;99601.33;;;17.36;37.83
59073;BME280;44859;51.934;15.554;2023-04-28T13:04:45;99599.33;;;17.25;37.08
59073;BME280;44859;51.934;15.554;2023-04-28T13:07:15;99598.05;;;16.98;37.41
59073;BME280;44859;51.934;15.554;2023-04-28T13:09:43;99597.11;;;16.78;37.51
59073;BME280;44859;51.934;15.554;2023-04-28T13:12:14;99591.67;;;16.80;38.22
59073;BME280;44859;51.934;15.554;2023-04-28T13:14:42;99591.92;;;16.88;37.95
59073;BME280;44859;51.934;15.554;2023-04-28T13:17:23;99588.52;;;16.91;37.42
59073;BME280;44859;51.934;15.554;2023-04-28T13:19:52;99577.94;;;16.90;37.52
59073;BME280;44859;51.934;15.554;2023-04-28T13:22:21;99578.34;;;16.94;37.29
59073;BME280;44859;51.934;15.554;2023-04-28T13:24:50;99574.42;;;16.99;37.13
59073;BME280;44859;51.934;15.554;2023-04-28T13:27:18;99567.47;;;17.02;37.27
59073;BME280;44859;51.934;15.554;2023-04-28T13:29:47;99565.14;;;17.20;37.80
59073;BME280;44859;51.934;15.554;2023-04-28T13:32:15;99560.60;;;17.41;37.16
59073;BME280;44859;51.934;15.554;2023-04-28T13:34:57;99557.40;;;17.39;37.10
59073;BME280;44859;51.934;15.554;2023-04-28T13:37:25;99557.84;;;17.42;37.24
59073;BME280;44859;51.934;15.554;2023-04-28T13:39:58;99556.33;;;17.50;37.26
59073;BME280;44859;51.934;15.554;2023-04-28T13:42:51;99552.83;;;17.52;37.12
59073;BME280;44859;51.934;15.554;2023-04-28T13:45:20;99549.70;;;17.55;36.55
59073;BME280;44859;51.934;15.554;2023-04-28T13:47:50;99543.88;;;17.61;36.91
59073;BME280;44859;51.934;15.554;2023-04-28T13:50:18;99542.11;;;17.59;36.26
59073;BME280;44859;51.934;15.554;2023-04-28T13:52:47;99540.23;;;17.62;36.39
59073;BME280;44859;51.934;15.554;2023-04-28T13:55:16;99537.59;;;17.65;36.21
59073;BME280;44859;51.934;15.554;2023-04-28T13:57:44;99540.42;;;17.65;36.26
59073;BME280;44859;51.934;15.554;2023-04-28T14:00:13;99533.77;;;17.48;35.63
59073;BME280;44859;51.934;15.554;2023-04-28T14:02:42;99535.55;;;17.29;36.41
59073;BME280;44859;51.934;15.554;2023-04-28T14:05:29;99535.21;;;17.14;36.43
59073;BME280;44859;51.934;15.554;2023-04-28T14:08:21;99531.99;;;16.97;36.94
59073;BME280;44859;51.934;15.554;2023-04-28T14:10:54;99527.61;;;16.87;36.99